Terminal Aerodrome Forecast
Issued by NWS Greer, SC

Home | Current Version | Previous Version | Text Only | Print | Product List | Glossary On
Versions: 1 2 3 4 5 6 7 8 9 10 11 12 13 14 15 16 17 18 19 20 21 22 23 24 25 26 27 28 29 30 31 32 33 34 35 36 37 38 39 40 41 42 43 44 45 46 47 48 49
000
FTUS42 KGSP 290200 AAB
TAFCLT
TAF AMD
KCLT 290200Z 2902/2924 20003KT P6SM FEW140 BKN250
     FM290600 15004KT P6SM BKN060
     FM290900 15003KT 4SM BR SCT030 BKN060
     FM291300 16004KT P6SM BKN060
     FM291800 20004KT P6SM BKN060 PROB30 2918/2919 4SM TSRA
      BKN040CB=

USA.gov is the U.S. government's official web portal to all federal, state and local government web resources and services.